createdAt,value
2017-10-17T00:01:57.603Z,8.60
2017-10-17T00:04:24.960Z,7.63
2017-10-17T00:06:52.338Z,8.10
2017-10-17T00:09:19.692Z,8.60
2017-10-17T00:11:47.058Z,7.90
2017-10-17T00:14:14.401Z,7.53
2017-10-17T00:16:41.745Z,7.73
2017-10-17T00:19:09.092Z,7.70
2017-10-17T00:21:36.480Z,7.10
2017-10-17T00:24:03.827Z,7.80
2017-10-17T00:26:31.188Z,7.20
2017-10-17T00:28:58.867Z,7.13
2017-10-17T00:31:26.208Z,7.00
2017-10-17T00:33:53.576Z,8.30
2017-10-17T00:36:20.923Z,7.10
2017-10-17T00:38:49.025Z,7.43
2017-10-17T00:41:16.384Z,7.10
2017-10-17T00:43:43.720Z,7.00
2017-10-17T00:46:15.964Z,7.30
2017-10-17T00:48:43.328Z,8.73
2017-10-17T00:51:10.654Z,7.60
2017-10-17T00:53:38.019Z,7.80
2017-10-17T00:56:05.401Z,7.33
2017-10-17T00:58:32.786Z,7.73
2017-10-17T01:01:00.152Z,7.57
2017-10-17T01:03:27.487Z,7.60
2017-10-17T01:05:54.819Z,7.23
2017-10-17T01:08:22.197Z,7.30
2017-10-17T01:10:49.544Z,7.57
2017-10-17T01:13:16.878Z,6.97
2017-10-17T01:15:44.239Z,7.77
2017-10-17T01:18:11.565Z,7.03
2017-10-17T01:20:38.949Z,7.43
2017-10-17T01:23:11.177Z,7.60
2017-10-17T01:25:38.556Z,7.00
2017-10-17T01:28:16.725Z,8.53
2017-10-17T01:30:44.257Z,7.73
2017-10-17T01:33:12.523Z,7.13
2017-10-17T01:35:39.915Z,6.97
2017-10-17T01:38:23.978Z,7.13
2017-10-17T01:40:51.300Z,7.27
2017-10-17T01:43:20.697Z,7.63
2017-10-17T01:45:47.975Z,7.90
2017-10-17T01:48:15.367Z,7.47
2017-10-17T01:50:45.415Z,7.30
2017-10-17T01:53:12.760Z,7.37
2017-10-17T01:55:40.085Z,7.40
2017-10-17T01:58:08.254Z,7.40
2017-10-17T02:00:35.598Z,7.63
2017-10-17T02:03:02.986Z,7.07
2017-10-17T02:05:30.344Z,7.70
2017-10-17T02:07:57.706Z,7.43
2017-10-17T02:10:25.040Z,8.20
2017-10-17T02:12:52.405Z,7.80
2017-10-17T02:15:19.747Z,7.03
2017-10-17T02:17:47.096Z,7.60
2017-10-17T02:20:14.504Z,6.63
2017-10-17T02:22:41.993Z,7.77
2017-10-17T02:25:15.076Z,6.80
2017-10-17T02:27:42.444Z,6.30
2017-10-17T02:30:10.655Z,7.10
2017-10-17T02:32:38.023Z,7.33
2017-10-17T02:35:21.160Z,6.93
2017-10-17T02:37:48.588Z,7.57
2017-10-17T02:40:16.079Z,7.00
2017-10-17T02:42:43.444Z,7.60
2017-10-17T02:45:10.829Z,7.13
2017-10-17T02:47:38.187Z,7.47
2017-10-17T02:50:09.309Z,7.30
2017-10-17T02:52:41.511Z,6.53
2017-10-17T02:55:08.838Z,7.00
2017-10-17T02:57:36.225Z,8.00
2017-10-17T03:00:04.361Z,7.00
2017-10-17T03:02:32.554Z,6.73
2017-10-17T03:05:00.052Z,7.33
2017-10-17T03:07:27.425Z,7.33
2017-10-17T03:09:54.768Z,7.27
2017-10-17T03:12:22.095Z,7.17
2017-10-17T03:14:54.289Z,8.10
2017-10-17T03:17:21.652Z,6.63
2017-10-17T03:19:49.040Z,7.23
2017-10-17T03:22:16.377Z,7.40
2017-10-17T03:24:48.464Z,7.87
2017-10-17T03:27:15.804Z,7.90
2017-10-17T03:29:43.176Z,7.60
2017-10-17T03:32:10.540Z,7.80
2017-10-17T03:34:40.587Z,7.00
2017-10-17T03:37:07.671Z,6.93
2017-10-17T03:39:37.727Z,6.47
2017-10-17T03:42:04.805Z,7.13
2017-10-17T03:44:48.592Z,8.37
2017-10-17T03:47:16.565Z,7.33
2017-10-17T03:49:43.700Z,6.83
2017-10-17T03:52:11.560Z,7.63
2017-10-17T03:54:41.593Z,6.57
2017-10-17T03:57:09.466Z,7.53
2017-10-17T03:59:38.249Z,7.07
2017-10-17T04:02:05.369Z,7.33
2017-10-17T04:04:33.421Z,6.93
2017-10-17T04:07:16.281Z,6.83
2017-10-17T04:09:43.413Z,6.83
2017-10-17T04:12:10.517Z,7.70
2017-10-17T04:14:42.536Z,6.90
2017-10-17T04:17:12.622Z,7.20
2017-10-17T04:19:40.717Z,7.80
2017-10-17T04:22:10.648Z,7.70
2017-10-17T04:24:38.597Z,7.90
2017-10-17T04:27:05.661Z,7.43
2017-10-17T04:29:33.441Z,6.90
2017-10-17T04:32:00.618Z,8.03
2017-10-17T04:34:38.565Z,8.07
2017-10-17T04:37:10.675Z,7.60
2017-10-17T04:39:37.807Z,7.60
2017-10-17T04:42:24.723Z,7.90
2017-10-17T04:44:57.630Z,7.50
2017-10-17T04:47:34.669Z,7.43
2017-10-17T04:50:16.617Z,7.80
2017-10-17T04:52:47.670Z,6.80
2017-10-17T04:55:14.924Z,7.23
2017-10-17T04:57:42.840Z,7.50
2017-10-17T05:00:09.940Z,8.03
2017-10-17T05:02:47.153Z,7.50
2017-10-17T05:05:17.089Z,6.87
2017-10-17T05:07:51.313Z,7.63
2017-10-17T05:10:29.204Z,7.63
2017-10-17T05:12:58.162Z,7.77
2017-10-17T05:15:25.300Z,7.60
2017-10-17T05:17:55.292Z,7.80
2017-10-17T05:20:22.405Z,8.03
2017-10-17T05:22:51.337Z,7.90
2017-10-17T05:25:32.421Z,8.47
2017-10-17T05:28:20.240Z,7.63
2017-10-17T05:30:48.970Z,7.37
2017-10-17T05:33:22.001Z,7.93
2017-10-17T05:35:49.142Z,7.90
2017-10-17T05:38:16.262Z,7.50
2017-10-17T05:40:43.354Z,7.57
2017-10-17T05:43:14.324Z,7.87
2017-10-17T05:45:41.523Z,7.53
2017-10-17T05:48:18.548Z,8.30
2017-10-17T05:51:00.529Z,7.43
2017-10-17T05:53:27.761Z,8.00
2017-10-17T05:55:54.839Z,8.50
2017-10-17T05:58:22.049Z,8.30
2017-10-17T06:00:49.155Z,8.00
2017-10-17T06:03:16.356Z,8.80
2017-10-17T06:05:43.469Z,8.33
2017-10-17T06:08:10.586Z,8.03
2017-10-17T06:10:37.683Z,8.13
2017-10-17T06:13:04.834Z,8.00
2017-10-17T06:15:31.946Z,8.33
2017-10-17T06:17:59.305Z,8.53
2017-10-17T06:20:26.678Z,8.03
2017-10-17T06:22:53.996Z,7.90
2017-10-17T06:25:21.376Z,8.33
2017-10-17T06:27:48.756Z,8.87
2017-10-17T06:30:16.172Z,8.90
2017-10-17T06:32:43.545Z,7.70
2017-10-17T06:35:10.868Z,7.63
2017-10-17T06:37:38.220Z,8.00
2017-10-17T06:40:05.568Z,8.27
2017-10-17T06:42:32.934Z,7.90
2017-10-17T06:45:00.289Z,8.20
2017-10-17T06:47:27.650Z,8.03
2017-10-17T06:49:55.014Z,7.87
2017-10-17T06:52:22.389Z,7.73
2017-10-17T06:54:49.734Z,8.47
2017-10-17T06:57:17.081Z,7.67
2017-10-17T06:59:44.450Z,8.63
2017-10-17T07:02:11.814Z,8.03
2017-10-17T07:04:39.165Z,8.53
2017-10-17T07:07:06.537Z,8.33
2017-10-17T07:09:33.928Z,7.83
2017-10-17T07:12:01.337Z,7.80
2017-10-17T07:14:28.732Z,8.00
2017-10-17T07:16:56.080Z,8.10
2017-10-17T07:19:23.457Z,8.80
2017-10-17T07:21:50.795Z,8.40
2017-10-17T07:24:18.202Z,8.40
2017-10-17T07:26:45.618Z,8.23
2017-10-17T07:29:12.989Z,7.90
2017-10-17T07:31:40.339Z,8.00
2017-10-17T07:34:07.712Z,8.07
2017-10-17T07:36:35.060Z,9.10
2017-10-17T07:39:02.444Z,8.13
2017-10-17T07:41:29.814Z,8.20
2017-10-17T07:43:57.207Z,8.23
2017-10-17T07:46:24.568Z,8.30
2017-10-17T07:48:51.912Z,8.10
2017-10-17T07:51:19.264Z,7.83
2017-10-17T07:53:46.625Z,8.30
2017-10-17T07:56:14.074Z,8.20
2017-10-17T07:58:41.390Z,8.13
2017-10-17T08:01:08.766Z,8.43
2017-10-17T08:03:36.131Z,8.90
2017-10-17T08:06:03.495Z,8.00
2017-10-17T08:08:30.905Z,8.47
2017-10-17T08:10:58.286Z,7.20
2017-10-17T08:13:25.663Z,8.70
2017-10-17T08:15:52.989Z,7.90
2017-10-17T08:18:20.361Z,8.73
2017-10-17T08:20:47.701Z,8.23
2017-10-17T08:23:15.066Z,8.30
2017-10-17T08:25:42.431Z,9.43
2017-10-17T08:28:09.818Z,8.40
2017-10-17T08:30:37.157Z,9.70
2017-10-17T08:33:04.520Z,9.00
2017-10-17T08:35:31.914Z,9.30
2017-10-17T08:37:59.275Z,9.03
2017-10-17T08:40:26.655Z,8.40
2017-10-17T08:42:54.018Z,8.70
2017-10-17T08:45:21.374Z,9.87
2017-10-17T08:47:48.752Z,9.33
2017-10-17T08:50:16.152Z,8.73
2017-10-17T08:52:43.462Z,8.93
2017-10-17T08:55:10.829Z,9.90
2017-10-17T08:57:38.192Z,8.60
2017-10-17T09:00:05.575Z,8.63
2017-10-17T09:02:32.957Z,9.33
2017-10-17T09:05:00.313Z,9.40
2017-10-17T09:07:27.680Z,9.00
2017-10-17T09:09:55.029Z,9.03
2017-10-17T09:12:22.402Z,9.03
2017-10-17T09:14:49.733Z,9.53
2017-10-17T09:17:17.112Z,9.77
2017-10-17T09:19:44.472Z,9.37
2017-10-17T09:22:11.820Z,9.20
2017-10-17T09:24:39.161Z,9.03
2017-10-17T09:27:06.571Z,9.00
2017-10-17T09:29:33.947Z,10.17
2017-10-17T09:32:01.470Z,9.87
2017-10-17T09:34:28.832Z,9.40
2017-10-17T09:36:56.333Z,9.93
2017-10-17T09:39:23.715Z,9.90
2017-10-17T09:41:51.079Z,9.80
2017-10-17T09:44:18.445Z,9.50
2017-10-17T09:46:45.825Z,9.97
2017-10-17T09:49:13.161Z,9.50
2017-10-17T09:51:40.539Z,9.97
2017-10-17T09:54:07.901Z,9.30
2017-10-17T09:56:35.278Z,9.17
2017-10-17T09:59:02.636Z,9.77
2017-10-17T10:01:30.034Z,9.90
2017-10-17T10:03:57.429Z,10.43
2017-10-17T10:06:24.816Z,9.13
2017-10-17T10:08:52.140Z,10.00
2017-10-17T10:11:19.505Z,10.30
2017-10-17T10:13:46.848Z,9.90
2017-10-17T10:16:14.189Z,9.50
2017-10-17T10:18:41.757Z,10.00
2017-10-17T10:21:09.100Z,9.23
2017-10-17T10:23:36.464Z,9.13
2017-10-17T10:26:03.819Z,9.40
2017-10-17T10:28:31.184Z,10.80
2017-10-17T10:30:58.552Z,10.37
2017-10-17T10:33:25.932Z,9.93
2017-10-17T10:35:53.298Z,10.20
2017-10-17T10:38:20.672Z,9.80
2017-10-17T10:40:48.129Z,9.80
2017-10-17T10:43:15.489Z,10.60
2017-10-17T10:45:42.848Z,9.87
2017-10-17T10:48:10.244Z,9.60
2017-10-17T10:50:37.605Z,10.33
2017-10-17T10:53:05.108Z,10.93
2017-10-17T10:55:32.511Z,9.90
2017-10-17T10:57:59.865Z,9.83
2017-10-17T11:00:27.247Z,9.43
2017-10-17T11:02:54.613Z,10.20
2017-10-17T11:05:22.003Z,11.03
2017-10-17T11:07:49.392Z,13.70
2017-10-17T11:10:16.740Z,13.80
2017-10-17T11:12:44.138Z,14.33
2017-10-17T11:15:11.481Z,13.93
2017-10-17T11:17:38.842Z,11.73
2017-10-17T11:20:06.189Z,12.03
2017-10-17T11:22:34.453Z,11.87
2017-10-17T11:25:01.845Z,13.07
2017-10-17T11:27:29.219Z,11.70
2017-10-17T11:29:56.611Z,12.27
2017-10-17T11:32:23.979Z,12.20
2017-10-17T11:34:51.371Z,12.30
2017-10-17T11:37:18.688Z,11.27
2017-10-17T11:39:46.063Z,11.37
2017-10-17T11:42:19.204Z,11.60
2017-10-17T11:44:46.509Z,11.93
2017-10-17T11:47:13.870Z,11.70
2017-10-17T11:49:41.262Z,11.10
2017-10-17T11:52:08.676Z,11.50
2017-10-17T11:54:35.998Z,11.53
2017-10-17T11:57:03.378Z,10.90
2017-10-17T11:59:30.857Z,10.67
2017-10-17T12:01:58.200Z,10.30
2017-10-17T12:04:25.562Z,11.17
2017-10-17T12:06:52.917Z,10.60
2017-10-17T12:09:20.241Z,10.37
2017-10-17T12:11:47.608Z,10.80
2017-10-17T12:14:14.969Z,10.10
2017-10-17T12:16:42.336Z,10.77
2017-10-17T12:19:09.688Z,10.20
2017-10-17T12:21:37.055Z,10.43
2017-10-17T12:24:04.464Z,10.90
2017-10-17T12:26:31.848Z,11.10
2017-10-17T12:28:59.308Z,9.93
2017-10-17T12:31:26.695Z,10.70
2017-10-17T12:33:54.056Z,10.50
2017-10-17T12:36:21.440Z,9.80
2017-10-17T12:38:48.740Z,10.23
2017-10-17T12:41:16.108Z,10.03
2017-10-17T12:43:43.494Z,10.07
2017-10-17T12:46:10.851Z,10.97
2017-10-17T12:48:38.193Z,10.40
2017-10-17T12:51:05.576Z,10.17
2017-10-17T12:53:32.947Z,10.47
2017-10-17T12:56:00.461Z,10.63
2017-10-17T12:58:27.865Z,10.10
2017-10-17T13:00:55.230Z,9.40
2017-10-17T13:03:22.599Z,9.83
2017-10-17T13:05:49.979Z,10.43
2017-10-17T13:08:17.401Z,10.37
2017-10-17T13:10:44.822Z,9.70
2017-10-17T13:13:12.194Z,10.00
2017-10-17T13:15:39.564Z,10.60
2017-10-17T13:18:06.929Z,9.40
2017-10-17T13:20:34.307Z,9.57
2017-10-17T13:23:01.650Z,10.37
2017-10-17T13:25:28.996Z,9.73
2017-10-17T13:27:56.347Z,10.17
2017-10-17T13:30:23.725Z,10.30
2017-10-17T13:32:51.085Z,9.60
2017-10-17T13:35:18.476Z,9.47
2017-10-17T13:37:45.830Z,9.80
2017-10-17T13:40:13.181Z,10.40
2017-10-17T13:42:40.535Z,9.63
2017-10-17T13:45:07.886Z,9.90
2017-10-17T13:47:35.262Z,9.83
2017-10-17T13:50:02.620Z,9.07
2017-10-17T13:52:29.983Z,9.67
2017-10-17T13:54:57.338Z,10.20
2017-10-17T13:57:24.718Z,9.80
2017-10-17T13:59:52.082Z,9.50
2017-10-17T14:02:19.472Z,9.50
2017-10-17T14:04:46.821Z,10.27
2017-10-17T14:07:14.208Z,10.47
2017-10-17T14:09:41.549Z,9.17
2017-10-17T14:12:08.902Z,9.40
2017-10-17T14:14:36.285Z,9.10
2017-10-17T14:17:03.688Z,9.67
2017-10-17T14:19:31.049Z,8.90
2017-10-17T14:21:58.404Z,11.13
2017-10-17T14:24:25.793Z,9.53
2017-10-17T14:26:53.150Z,9.60
2017-10-17T14:29:20.533Z,9.50
2017-10-17T14:31:48.009Z,9.83
2017-10-17T14:34:15.401Z,9.53
2017-10-17T14:36:42.744Z,9.40
2017-10-17T14:39:10.101Z,10.07
2017-10-17T14:41:37.499Z,9.40
2017-10-17T14:44:04.922Z,9.20
2017-10-17T14:46:32.292Z,8.53
2017-10-17T14:48:59.624Z,8.40
2017-10-17T14:51:26.993Z,9.50
2017-10-17T14:53:54.339Z,9.47
2017-10-17T14:56:21.718Z,9.63
2017-10-17T14:58:49.054Z,8.93
2017-10-17T15:01:16.442Z,9.70
2017-10-17T15:03:43.778Z,9.70
2017-10-17T15:06:11.163Z,10.87
2017-10-17T15:08:38.506Z,10.80
2017-10-17T15:11:05.811Z,10.57
2017-10-17T15:13:33.207Z,11.10
2017-10-17T15:16:00.539Z,10.13
2017-10-17T15:18:27.933Z,11.20
2017-10-17T15:20:55.286Z,10.90
2017-10-17T15:23:22.670Z,10.90
2017-10-17T15:25:50.034Z,10.60
2017-10-17T15:28:17.417Z,10.90
2017-10-17T15:30:45.053Z,10.10
2017-10-17T15:33:12.511Z,11.47
2017-10-17T15:35:39.853Z,10.70
2017-10-17T15:38:07.238Z,11.60
2017-10-17T15:40:34.617Z,10.97
2017-10-17T15:43:01.987Z,10.90
2017-10-17T15:45:29.368Z,10.23
2017-10-17T15:47:56.749Z,10.80
2017-10-17T15:50:24.137Z,10.23
2017-10-17T15:52:51.521Z,9.60
2017-10-17T15:55:18.907Z,10.60
2017-10-17T15:57:46.284Z,10.13
2017-10-17T16:00:13.628Z,10.37
2017-10-17T16:02:41.027Z,10.47
2017-10-17T16:05:08.391Z,9.83
2017-10-17T16:07:35.768Z,10.53
2017-10-17T16:10:03.150Z,9.90
2017-10-17T16:12:30.501Z,9.60
2017-10-17T16:14:57.864Z,9.73
2017-10-17T16:17:25.245Z,10.27
2017-10-17T16:19:52.628Z,9.67
2017-10-17T16:22:19.990Z,9.33
2017-10-17T16:24:47.359Z,9.73
2017-10-17T16:27:14.707Z,9.67
2017-10-17T16:29:42.071Z,10.30
2017-10-17T16:32:09.453Z,9.40
2017-10-17T16:34:37.018Z,9.90
2017-10-17T16:37:04.371Z,10.07
2017-10-17T16:39:31.769Z,10.17
2017-10-17T16:41:59.191Z,10.17
2017-10-17T16:44:26.598Z,10.00
2017-10-17T16:46:53.964Z,9.87
2017-10-17T16:49:21.333Z,9.53
2017-10-17T16:51:48.733Z,9.93
2017-10-17T16:54:16.084Z,9.40
2017-10-17T16:56:43.461Z,8.83
2017-10-17T16:59:10.882Z,8.83
2017-10-17T17:01:38.219Z,8.80
2017-10-17T17:04:05.599Z,9.53
2017-10-17T17:06:32.981Z,9.63
2017-10-17T17:09:00.356Z,9.43
2017-10-17T17:11:27.672Z,9.03
2017-10-17T17:13:55.041Z,9.23
2017-10-17T17:16:22.608Z,9.43
2017-10-17T17:18:49.995Z,9.43
2017-10-17T17:21:17.449Z,10.00
2017-10-17T17:23:44.817Z,9.23
2017-10-17T17:26:12.236Z,10.07
2017-10-17T17:28:39.591Z,9.97
2017-10-17T17:31:07.133Z,9.10
2017-10-17T17:33:34.540Z,9.53
2017-10-17T17:36:01.946Z,9.37
2017-10-17T17:38:29.408Z,9.63
2017-10-17T17:40:56.833Z,9.33
2017-10-17T17:43:24.228Z,9.30
2017-10-17T17:45:51.636Z,8.80
2017-10-17T17:48:18.999Z,9.43
2017-10-17T17:50:46.375Z,9.43
2017-10-17T17:53:13.754Z,9.60
2017-10-17T17:55:41.140Z,9.03
2017-10-17T17:58:08.509Z,9.00
2017-10-17T18:00:35.924Z,9.43
2017-10-17T18:03:03.316Z,8.67
2017-10-17T18:05:30.681Z,9.23
2017-10-17T18:07:58.071Z,9.60
2017-10-17T18:10:25.454Z,9.30
2017-10-17T18:12:52.889Z,8.67
2017-10-17T18:15:20.259Z,8.67
2017-10-17T18:17:47.649Z,8.93
2017-10-17T18:20:14.998Z,9.07
2017-10-17T18:22:42.392Z,9.03
2017-10-17T18:25:09.794Z,8.93
2017-10-17T18:27:37.185Z,10.07
2017-10-17T18:30:04.575Z,10.60
2017-10-17T18:32:31.932Z,9.07
2017-10-17T18:34:59.282Z,10.37
2017-10-17T18:37:26.665Z,9.43
2017-10-17T18:39:54.102Z,10.00
2017-10-17T18:42:21.492Z,9.30
2017-10-17T18:44:48.852Z,9.57
2017-10-17T18:47:16.219Z,10.40
2017-10-17T18:49:43.601Z,10.90
2017-10-17T18:52:11.085Z,11.60
2017-10-17T18:54:38.471Z,12.17
2017-10-17T18:57:05.844Z,11.53
2017-10-17T18:59:33.225Z,10.53
2017-10-17T19:02:00.595Z,11.70
2017-10-17T19:04:27.974Z,11.07
2017-10-17T19:06:55.346Z,10.57
2017-10-17T19:09:22.711Z,10.40
2017-10-17T19:11:50.098Z,12.10
2017-10-17T19:14:17.539Z,11.00
2017-10-17T19:16:44.985Z,10.93
2017-10-17T19:19:12.677Z,11.47
2017-10-17T19:21:40.017Z,10.30
2017-10-17T19:24:07.388Z,11.47
2017-10-17T19:26:34.778Z,10.50
2017-10-17T19:29:02.149Z,11.33
2017-10-17T19:31:29.523Z,11.80
2017-10-17T19:33:56.932Z,11.27
2017-10-17T19:36:24.291Z,11.20
2017-10-17T19:38:51.727Z,10.97
2017-10-17T19:41:19.080Z,11.37
2017-10-17T19:43:46.467Z,12.47
2017-10-17T19:46:13.875Z,11.00
2017-10-17T19:48:41.274Z,11.70
2017-10-17T19:51:08.663Z,11.80
2017-10-17T19:53:36.042Z,12.23
2017-10-17T19:56:03.400Z,11.13
2017-10-17T19:58:30.774Z,12.10
2017-10-17T20:00:58.179Z,11.50
2017-10-17T20:03:25.530Z,11.70
2017-10-17T20:05:52.891Z,11.30
2017-10-17T20:08:20.312Z,11.07
2017-10-17T20:10:47.680Z,10.77
2017-10-17T20:13:15.041Z,11.63
2017-10-17T20:15:42.409Z,11.73
2017-10-17T20:18:09.764Z,11.47
2017-10-17T20:20:37.265Z,10.80
2017-10-17T20:23:04.889Z,12.57
2017-10-17T20:25:32.185Z,11.50
2017-10-17T20:27:59.601Z,12.17
2017-10-17T20:30:27.382Z,11.20
2017-10-17T20:32:55.262Z,10.60
2017-10-17T20:35:22.703Z,12.07
2017-10-17T20:37:50.163Z,11.17
2017-10-17T20:40:17.651Z,9.73
2017-10-17T20:42:45.030Z,11.37
2017-10-17T20:45:12.359Z,10.50
2017-10-17T20:47:40.347Z,10.10
2017-10-17T20:50:07.747Z,10.93
2017-10-17T20:52:35.124Z,10.50
2017-10-17T20:55:02.482Z,9.63
2017-10-17T20:57:29.867Z,11.00
2017-10-17T20:59:57.270Z,10.13
2017-10-17T21:02:24.621Z,10.67
2017-10-17T21:04:51.993Z,9.83
2017-10-17T21:07:19.324Z,10.43
2017-10-17T21:09:47.007Z,10.40
2017-10-17T21:12:14.367Z,10.13
2017-10-17T21:14:41.747Z,9.80
2017-10-17T21:17:09.110Z,10.20
2017-10-17T21:19:36.472Z,10.00
2017-10-17T21:22:03.865Z,10.50
2017-10-17T21:24:31.342Z,9.80
2017-10-17T21:26:58.662Z,9.87
2017-10-17T21:29:26.018Z,10.00
2017-10-17T21:31:53.397Z,10.20
2017-10-17T21:34:20.754Z,9.90
2017-10-17T21:36:48.113Z,9.73
2017-10-17T21:39:15.470Z,9.80
2017-10-17T21:41:42.872Z,11.03
2017-10-17T21:44:10.244Z,10.30
2017-10-17T21:46:37.619Z,10.63
2017-10-17T21:49:04.967Z,10.50
2017-10-17T21:51:32.349Z,10.10
2017-10-17T21:53:59.685Z,10.43
2017-10-17T21:56:27.048Z,9.90
2017-10-17T21:58:54.431Z,9.53
2017-10-17T22:01:21.771Z,9.70
2017-10-17T22:03:49.157Z,9.27
2017-10-17T22:06:16.528Z,9.77
2017-10-17T22:08:43.876Z,9.80
2017-10-17T22:11:11.247Z,10.43
2017-10-17T22:13:38.617Z,9.93
2017-10-17T22:16:06.089Z,9.53
2017-10-17T22:18:33.445Z,9.87
2017-10-17T22:21:00.807Z,10.10
2017-10-17T22:23:28.131Z,9.33
2017-10-17T22:25:55.521Z,9.20
2017-10-17T22:28:22.860Z,9.43
2017-10-17T22:30:50.240Z,9.37
2017-10-17T22:33:17.595Z,9.90
2017-10-17T22:35:44.961Z,9.30
2017-10-17T22:38:12.289Z,9.73
2017-10-17T22:40:39.649Z,9.90
2017-10-17T22:43:07.032Z,9.57
2017-10-17T22:45:34.333Z,8.47
2017-10-17T22:48:01.785Z,9.37
2017-10-17T22:50:29.133Z,9.27
2017-10-17T22:52:56.584Z,10.30
2017-10-17T22:55:23.968Z,9.50
2017-10-17T22:57:51.330Z,9.30
2017-10-17T23:00:18.673Z,9.00
2017-10-17T23:02:46.040Z,8.87
2017-10-17T23:05:13.410Z,9.67
2017-10-17T23:07:40.781Z,9.37
2017-10-17T23:10:08.122Z,9.80
2017-10-17T23:12:35.471Z,9.80
2017-10-17T23:15:02.857Z,8.90
2017-10-17T23:17:36.193Z,10.53
2017-10-17T23:20:09.359Z,9.40
2017-10-17T23:22:36.677Z,10.20
2017-10-17T23:25:03.987Z,8.40
2017-10-17T23:27:31.318Z,9.20
2017-10-17T23:29:58.660Z,8.83
2017-10-17T23:32:26.000Z,9.30
2017-10-17T23:34:53.385Z,8.57
2017-10-17T23:37:20.736Z,9.07
2017-10-17T23:39:48.080Z,9.17
2017-10-17T23:42:15.435Z,9.13
2017-10-17T23:44:42.773Z,9.00
2017-10-17T23:47:10.129Z,9.20
2017-10-17T23:49:37.476Z,9.53
2017-10-17T23:52:04.843Z,9.17
2017-10-17T23:54:32.183Z,8.70
2017-10-17T23:56:59.563Z,9.40
2017-10-17T23:59:26.924Z,8.90
